sensor_id;sensor_type;location;lat;lon;timestamp;noise_LAeq;noise_LA_min;noise_LA_max;noise_LA01;noise_LA95
70245;Laerm;57637;49.272;8.590;2023-04-25T00:01:20;33.40;30.52;40.88;;
70245;Laerm;57637;49.272;8.590;2023-04-25T00:03:47;35.73;32.35;42.82;;
70245;Laerm;57637;49.272;8.590;2023-04-25T00:06:12;36.08;32.38;45.27;;
70245;Laerm;57637;49.272;8.590;2023-04-25T00:08:38;36.21;32.74;47.80;;
70245;Laerm;57637;49.272;8.590;2023-04-25T00:11:03;34.18;31.03;44.70;;
70245;Laerm;57637;49.272;8.590;2023-04-25T00:13:29;33.76;30.99;43.47;;
70245;Laerm;57637;49.272;8.590;2023-04-25T00:15:55;37.12;31.07;48.08;;
70245;Laerm;57637;49.272;8.590;2023-04-25T00:18:21;34.51;31.82;45.03;;
70245;Laerm;57637;49.272;8.590;2023-04-25T00:20:47;34.16;30.59;43.31;;
70245;Laerm;57637;49.272;8.590;2023-04-25T00:23:14;33.01;30.45;44.93;;
70245;Laerm;57637;49.272;8.590;2023-04-25T00:25:47;32.59;30.09;46.24;;
70245;Laerm;57637;49.272;8.590;2023-04-25T00:28:13;32.62;30.16;43.84;;
70245;Laerm;57637;49.272;8.590;2023-04-25T00:30:39;32.86;29.90;42.69;;
70245;Laerm;57637;49.272;8.590;2023-04-25T00:33:05;33.35;30.54;44.57;;
70245;Laerm;57637;49.272;8.590;2023-04-25T00:35:30;35.78;32.65;44.91;;
70245;Laerm;57637;49.272;8.590;2023-04-25T00:37:56;34.03;31.09;39.37;;
70245;Laerm;57637;49.272;8.590;2023-04-25T00:40:21;32.81;30.52;36.73;;
70245;Laerm;57637;49.272;8.590;2023-04-25T00:42:47;32.90;30.23;38.50;;
70245;Laerm;57637;49.272;8.590;2023-04-25T00:45:14;33.41;31.09;41.76;;
70245;Laerm;57637;49.272;8.590;2023-04-25T00:47:41;33.42;30.60;44.83;;
70245;Laerm;57637;49.272;8.590;2023-04-25T00:50:07;33.43;30.49;47.42;;
70245;Laerm;57637;49.272;8.590;2023-04-25T00:52:34;33.30;30.32;45.01;;
70245;Laerm;57637;49.272;8.590;2023-04-25T00:54:59;32.84;30.26;36.34;;
70245;Laerm;57637;49.272;8.590;2023-04-25T00:57:28;34.11;30.70;38.55;;
70245;Laerm;57637;49.272;8.590;2023-04-25T00:59:54;34.75;31.09;41.69;;
70245;Laerm;57637;49.272;8.590;2023-04-25T01:02:20;32.57;29.69;39.82;;
70245;Laerm;57637;49.272;8.590;2023-04-25T01:04:46;31.98;29.03;35.24;;
70245;Laerm;57637;49.272;8.590;2023-04-25T01:07:12;31.88;29.40;44.40;;
70245;Laerm;57637;49.272;8.590;2023-04-25T01:09:38;32.09;29.69;40.01;;
70245;Laerm;57637;49.272;8.590;2023-04-25T01:12:03;31.36;29.14;35.05;;
70245;Laerm;57637;49.272;8.590;2023-04-25T01:14:29;32.03;29.21;36.26;;
70245;Laerm;57637;49.272;8.590;2023-04-25T01:16:55;31.86;29.57;36.10;;
70245;Laerm;57637;49.272;8.590;2023-04-25T01:19:21;31.56;29.38;35.13;;
70245;Laerm;57637;49.272;8.590;2023-04-25T01:21:46;31.67;28.79;36.80;;
70245;Laerm;57637;49.272;8.590;2023-04-25T01:24:12;31.36;29.19;35.22;;
70245;Laerm;57637;49.272;8.590;2023-04-25T01:26:39;31.47;29.47;35.37;;
70245;Laerm;57637;49.272;8.590;2023-04-25T01:29:06;31.16;29.44;34.49;;
70245;Laerm;57637;49.272;8.590;2023-04-25T01:31:33;31.00;29.24;37.48;;
70245;Laerm;57637;49.272;8.590;2023-04-25T01:34:00;31.56;29.12;35.66;;
70245;Laerm;57637;49.272;8.590;2023-04-25T01:36:25;31.83;29.78;38.62;;
70245;Laerm;57637;49.272;8.590;2023-04-25T01:38:52;31.94;29.07;40.50;;
70245;Laerm;57637;49.272;8.590;2023-04-25T01:41:18;33.05;29.67;40.77;;
70245;Laerm;57637;49.272;8.590;2023-04-25T01:43:44;33.91;30.42;37.47;;
70245;Laerm;57637;49.272;8.590;2023-04-25T01:46:11;33.47;29.39;37.59;;
70245;Laerm;57637;49.272;8.590;2023-04-25T01:48:39;34.64;31.46;39.34;;
70245;Laerm;57637;49.272;8.590;2023-04-25T01:51:04;34.61;31.29;39.57;;
70245;Laerm;57637;49.272;8.590;2023-04-25T01:53:30;35.19;32.08;41.81;;
70245;Laerm;57637;49.272;8.590;2023-04-25T01:55:55;33.93;31.53;39.85;;
70245;Laerm;57637;49.272;8.590;2023-04-25T01:58:20;40.61;32.92;46.74;;
70245;Laerm;57637;49.272;8.590;2023-04-25T02:00:48;39.10;36.05;49.03;;
70245;Laerm;57637;49.272;8.590;2023-04-25T02:03:13;37.84;34.99;54.57;;
70245;Laerm;57637;49.272;8.590;2023-04-25T02:05:39;37.35;33.41;54.16;;
70245;Laerm;57637;49.272;8.590;2023-04-25T02:08:06;38.44;33.54;49.86;;
70245;Laerm;57637;49.272;8.590;2023-04-25T02:10:33;40.90;37.20;62.38;;
70245;Laerm;57637;49.272;8.590;2023-04-25T02:12:58;41.04;37.46;53.41;;
70245;Laerm;57637;49.272;8.590;2023-04-25T02:15:24;40.33;37.10;53.18;;
70245;Laerm;57637;49.272;8.590;2023-04-25T02:17:50;48.31;34.75;68.88;;
70245;Laerm;57637;49.272;8.590;2023-04-25T02:20:20;36.37;33.95;53.84;;
70245;Laerm;57637;49.272;8.590;2023-04-25T02:22:46;37.97;34.64;54.31;;
70245;Laerm;57637;49.272;8.590;2023-04-25T02:25:12;39.69;35.37;46.95;;
70245;Laerm;57637;49.272;8.590;2023-04-25T02:27:38;39.75;36.55;57.24;;
70245;Laerm;57637;49.272;8.590;2023-04-25T02:30:04;39.23;36.35;47.80;;
70245;Laerm;57637;49.272;8.590;2023-04-25T02:32:30;38.72;36.10;46.30;;
70245;Laerm;57637;49.272;8.590;2023-04-25T02:34:55;41.18;37.43;47.17;;
70245;Laerm;57637;49.272;8.590;2023-04-25T02:37:23;43.28;38.39;48.93;;
70245;Laerm;57637;49.272;8.590;2023-04-25T02:39:49;39.90;36.79;48.13;;
70245;Laerm;57637;49.272;8.590;2023-04-25T02:42:15;40.36;37.02;47.42;;
70245;Laerm;57637;49.272;8.590;2023-04-25T02:44:40;42.42;38.85;60.37;;
70245;Laerm;57637;49.272;8.590;2023-04-25T02:47:06;42.86;38.79;57.33;;
70245;Laerm;57637;49.272;8.590;2023-04-25T02:49:31;40.93;37.41;51.16;;
70245;Laerm;57637;49.272;8.590;2023-04-25T02:51:56;39.78;37.06;45.73;;
70245;Laerm;57637;49.272;8.590;2023-04-25T02:54:22;38.88;36.17;46.84;;
70245;Laerm;57637;49.272;8.590;2023-04-25T02:56:47;38.18;34.71;50.35;;
70245;Laerm;57637;49.272;8.590;2023-04-25T02:59:12;38.51;34.99;49.42;;
70245;Laerm;57637;49.272;8.590;2023-04-25T03:01:38;41.02;38.68;49.04;;
70245;Laerm;57637;49.272;8.590;2023-04-25T03:04:03;40.82;36.91;57.49;;
70245;Laerm;57637;49.272;8.590;2023-04-25T03:06:29;42.65;37.38;47.02;;
70245;Laerm;57637;49.272;8.590;2023-04-25T03:08:54;40.12;36.07;59.75;;
70245;Laerm;57637;49.272;8.590;2023-04-25T03:11:19;40.71;36.39;49.05;;
70245;Laerm;57637;49.272;8.590;2023-04-25T03:13:45;41.74;38.32;50.02;;
70245;Laerm;57637;49.272;8.590;2023-04-25T03:16:11;43.27;38.00;63.01;;
70245;Laerm;57637;49.272;8.590;2023-04-25T03:18:36;44.03;37.70;56.01;;
70245;Laerm;57637;49.272;8.590;2023-04-25T03:21:02;44.99;38.89;60.90;;
70245;Laerm;57637;49.272;8.590;2023-04-25T03:23:27;45.47;40.40;57.04;;
70245;Laerm;57637;49.272;8.590;2023-04-25T03:25:53;43.18;37.90;57.69;;
70245;Laerm;57637;49.272;8.590;2023-04-25T03:28:18;43.60;38.27;56.29;;
70245;Laerm;57637;49.272;8.590;2023-04-25T03:30:43;42.49;36.82;54.72;;
70245;Laerm;57637;49.272;8.590;2023-04-25T03:33:09;41.82;36.54;50.87;;
70245;Laerm;57637;49.272;8.590;2023-04-25T03:35:34;43.24;37.34;60.23;;
70245;Laerm;57637;49.272;8.590;2023-04-25T03:37:59;44.30;36.86;55.79;;
70245;Laerm;57637;49.272;8.590;2023-04-25T03:40:27;48.61;35.46;67.98;;
70245;Laerm;57637;49.272;8.590;2023-04-25T03:42:53;48.63;34.98;67.37;;
70245;Laerm;57637;49.272;8.590;2023-04-25T03:45:18;42.98;34.94;56.81;;
70245;Laerm;57637;49.272;8.590;2023-04-25T03:47:43;41.16;35.61;55.17;;
70245;Laerm;57637;49.272;8.590;2023-04-25T03:50:09;40.28;35.72;48.64;;
70245;Laerm;57637;49.272;8.590;2023-04-25T03:52:35;40.98;35.22;51.61;;
70245;Laerm;57637;49.272;8.590;2023-04-25T03:55:00;40.44;35.61;49.34;;
70245;Laerm;57637;49.272;8.590;2023-04-25T03:57:25;48.82;36.10;62.19;;
70245;Laerm;57637;49.272;8.590;2023-04-25T03:59:51;48.19;35.44;63.05;;
70245;Laerm;57637;49.272;8.590;2023-04-25T04:02:17;45.98;35.13;61.06;;
70245;Laerm;57637;49.272;8.590;2023-04-25T04:04:43;47.50;35.63;66.73;;
70245;Laerm;57637;49.272;8.590;2023-04-25T04:07:09;41.79;36.29;57.40;;
70245;Laerm;57637;49.272;8.590;2023-04-25T04:09:35;39.81;35.30;57.19;;
70245;Laerm;57637;49.272;8.590;2023-04-25T04:12:00;39.08;35.31;59.97;;
70245;Laerm;57637;49.272;8.590;2023-04-25T04:14:26;56.40;35.83;75.29;;
70245;Laerm;57637;49.272;8.590;2023-04-25T04:16:52;60.45;36.32;76.62;;
70245;Laerm;57637;49.272;8.590;2023-04-25T04:19:17;62.14;36.63;78.04;;
70245;Laerm;57637;49.272;8.590;2023-04-25T04:21:43;59.93;35.90;75.73;;
70245;Laerm;57637;49.272;8.590;2023-04-25T04:24:08;44.70;36.68;67.35;;
70245;Laerm;57637;49.272;8.590;2023-04-25T04:26:35;45.30;37.91;59.90;;
70245;Laerm;57637;49.272;8.590;2023-04-25T04:29:02;48.77;35.84;62.95;;
70245;Laerm;57637;49.272;8.590;2023-04-25T04:31:27;49.45;35.41;63.77;;
70245;Laerm;57637;49.272;8.590;2023-04-25T04:33:55;46.48;38.75;65.20;;
70245;Laerm;57637;49.272;8.590;2023-04-25T04:36:21;49.18;39.14;67.18;;
70245;Laerm;57637;49.272;8.590;2023-04-25T04:38:47;46.19;38.11;61.61;;
70245;Laerm;57637;49.272;8.590;2023-04-25T04:41:12;49.30;38.59;61.79;;
70245;Laerm;57637;49.272;8.590;2023-04-25T04:43:38;46.66;38.00;64.52;;
70245;Laerm;57637;49.272;8.590;2023-04-25T04:46:04;44.81;38.84;57.56;;
70245;Laerm;57637;49.272;8.590;2023-04-25T04:48:33;45.71;38.83;58.81;;
70245;Laerm;57637;49.272;8.590;2023-04-25T04:50:59;46.87;39.53;65.79;;
70245;Laerm;57637;49.272;8.590;2023-04-25T04:53:25;46.34;39.05;60.30;;
70245;Laerm;57637;49.272;8.590;2023-04-25T04:55:50;44.19;37.77;62.68;;
70245;Laerm;57637;49.272;8.590;2023-04-25T04:58:16;45.85;38.12;61.32;;
70245;Laerm;57637;49.272;8.590;2023-04-25T05:00:41;44.88;39.61;53.65;;
70245;Laerm;57637;49.272;8.590;2023-04-25T05:03:07;50.43;40.32;67.28;;
70245;Laerm;57637;49.272;8.590;2023-04-25T05:05:32;46.90;39.57;63.73;;
70245;Laerm;57637;49.272;8.590;2023-04-25T05:07:57;45.98;40.24;61.67;;
70245;Laerm;57637;49.272;8.590;2023-04-25T05:10:23;47.54;40.79;70.87;;
70245;Laerm;57637;49.272;8.590;2023-04-25T05:12:48;46.18;40.93;56.08;;
70245;Laerm;57637;49.272;8.590;2023-04-25T05:15:14;48.03;41.87;63.98;;
70245;Laerm;57637;49.272;8.590;2023-04-25T05:17:39;49.65;43.29;58.14;;
70245;Laerm;57637;49.272;8.590;2023-04-25T05:20:06;48.24;41.41;55.98;;
70245;Laerm;57637;49.272;8.590;2023-04-25T05:22:32;46.48;41.96;59.27;;
70245;Laerm;57637;49.272;8.590;2023-04-25T05:24:57;46.74;41.44;59.91;;
70245;Laerm;57637;49.272;8.590;2023-04-25T05:27:23;45.59;41.31;59.66;;
70245;Laerm;57637;49.272;8.590;2023-04-25T05:29:49;49.72;41.88;69.31;;
70245;Laerm;57637;49.272;8.590;2023-04-25T05:32:14;45.99;41.54;66.64;;
70245;Laerm;57637;49.272;8.590;2023-04-25T05:34:39;45.43;40.84;57.01;;
70245;Laerm;57637;49.272;8.590;2023-04-25T05:37:07;52.21;40.91;65.01;;
70245;Laerm;57637;49.272;8.590;2023-04-25T05:39:32;55.11;41.28;70.65;;
70245;Laerm;57637;49.272;8.590;2023-04-25T05:41:58;50.97;40.75;70.90;;
70245;Laerm;57637;49.272;8.590;2023-04-25T05:44:23;51.78;42.92;64.55;;
70245;Laerm;57637;49.272;8.590;2023-04-25T05:46:48;47.01;41.21;58.56;;
70245;Laerm;57637;49.272;8.590;2023-04-25T05:49:14;47.63;40.61;63.20;;
70245;Laerm;57637;49.272;8.590;2023-04-25T05:51:39;45.06;39.95;60.76;;
70245;Laerm;57637;49.272;8.590;2023-04-25T05:54:05;46.27;39.98;63.13;;
70245;Laerm;57637;49.272;8.590;2023-04-25T05:56:30;44.56;39.28;55.77;;
70245;Laerm;57637;49.272;8.590;2023-04-25T05:58:55;46.75;38.82;63.67;;
70245;Laerm;57637;49.272;8.590;2023-04-25T06:01:22;48.13;40.27;63.01;;
70245;Laerm;57637;49.272;8.590;2023-04-25T06:03:48;47.41;40.00;64.24;;
70245;Laerm;57637;49.272;8.590;2023-04-25T06:06:13;43.62;38.47;56.07;;
70245;Laerm;57637;49.272;8.590;2023-04-25T06:08:40;45.74;36.95;60.48;;
70245;Laerm;57637;49.272;8.590;2023-04-25T06:11:05;42.44;38.38;52.64;;
70245;Laerm;57637;49.272;8.590;2023-04-25T06:13:31;42.37;38.43;56.20;;
70245;Laerm;57637;49.272;8.590;2023-04-25T06:15:56;42.89;38.94;53.08;;
70245;Laerm;57637;49.272;8.590;2023-04-25T06:18:22;42.96;39.50;52.43;;
70245;Laerm;57637;49.272;8.590;2023-04-25T06:20:47;43.07;38.85;57.27;;
70245;Laerm;57637;49.272;8.590;2023-04-25T06:23:13;42.46;38.03;60.88;;
70245;Laerm;57637;49.272;8.590;2023-04-25T06:25:38;48.50;38.43;70.00;;
70245;Laerm;57637;49.272;8.590;2023-04-25T06:28:03;55.07;39.29;73.79;;
70245;Laerm;57637;49.272;8.590;2023-04-25T06:30:29;55.38;39.00;72.38;;
70245;Laerm;57637;49.272;8.590;2023-04-25T06:32:55;48.46;37.47;73.87;;
70245;Laerm;57637;49.272;8.590;2023-04-25T06:35:20;43.38;36.87;60.71;;
70245;Laerm;57637;49.272;8.590;2023-04-25T06:37:46;50.66;37.22;71.81;;
70245;Laerm;57637;49.272;8.590;2023-04-25T06:40:11;45.32;36.41;63.16;;
70245;Laerm;57637;49.272;8.590;2023-04-25T06:42:37;39.96;34.83;57.70;;
70245;Laerm;57637;49.272;8.590;2023-04-25T06:45:03;49.17;35.15;69.71;;
70245;Laerm;57637;49.272;8.590;2023-04-25T06:47:28;53.99;35.18;71.67;;
70245;Laerm;57637;49.272;8.590;2023-04-25T06:49:55;50.69;34.84;69.12;;
70245;Laerm;57637;49.272;8.590;2023-04-25T06:52:20;49.13;34.35;68.17;;
70245;Laerm;57637;49.272;8.590;2023-04-25T06:54:45;54.80;34.73;72.54;;
70245;Laerm;57637;49.272;8.590;2023-04-25T06:57:11;46.35;36.33;67.81;;
70245;Laerm;57637;49.272;8.590;2023-04-25T06:59:36;43.94;36.82;58.69;;
70245;Laerm;57637;49.272;8.590;2023-04-25T07:02:02;41.47;34.15;51.19;;
70245;Laerm;57637;49.272;8.590;2023-04-25T07:04:28;42.18;35.22;67.01;;
70245;Laerm;57637;49.272;8.590;2023-04-25T07:06:54;42.79;35.54;60.76;;
70245;Laerm;57637;49.272;8.590;2023-04-25T07:09:20;41.75;33.18;52.37;;
70245;Laerm;57637;49.272;8.590;2023-04-25T07:11:45;42.89;34.12;58.92;;
70245;Laerm;57637;49.272;8.590;2023-04-25T07:14:11;43.70;36.30;59.18;;
70245;Laerm;57637;49.272;8.590;2023-04-25T07:16:36;44.04;36.33;66.76;;
70245;Laerm;57637;49.272;8.590;2023-04-25T07:19:02;42.89;35.40;64.02;;
70245;Laerm;57637;49.272;8.590;2023-04-25T07:21:27;43.54;34.64;63.14;;
70245;Laerm;57637;49.272;8.590;2023-04-25T07:23:52;42.32;35.77;61.14;;
70245;Laerm;57637;49.272;8.590;2023-04-25T07:26:18;42.90;34.29;60.74;;
70245;Laerm;57637;49.272;8.590;2023-04-25T07:28:43;40.21;34.62;60.32;;
70245;Laerm;57637;49.272;8.590;2023-04-25T07:31:09;42.21;35.67;61.43;;
70245;Laerm;57637;49.272;8.590;2023-04-25T07:33:34;50.11;35.54;72.05;;
70245;Laerm;57637;49.272;8.590;2023-04-25T07:36:00;43.89;37.55;56.75;;
70245;Laerm;57637;49.272;8.590;2023-04-25T07:38:25;53.01;39.08;68.70;;
70245;Laerm;57637;49.272;8.590;2023-04-25T07:40:51;52.37;41.23;68.19;;
70245;Laerm;57637;49.272;8.590;2023-04-25T07:43:16;55.83;49.64;68.78;;
70245;Laerm;57637;49.272;8.590;2023-04-25T07:45:46;54.89;47.09;72.81;;
70245;Laerm;57637;49.272;8.590;2023-04-25T07:48:13;52.34;44.83;69.24;;
70245;Laerm;57637;49.272;8.590;2023-04-25T07:50:56;49.75;43.64;64.80;;
70245;Laerm;57637;49.272;8.590;2023-04-25T07:53:21;50.59;43.14;65.91;;
70245;Laerm;57637;49.272;8.590;2023-04-25T07:55:47;48.24;42.92;67.68;;
70245;Laerm;57637;49.272;8.590;2023-04-25T07:58:12;49.48;42.72;69.42;;
70245;Laerm;57637;49.272;8.590;2023-04-25T08:00:38;53.17;43.22;72.07;;
70245;Laerm;57637;49.272;8.590;2023-04-25T08:03:03;53.15;41.82;73.61;;
70245;Laerm;57637;49.272;8.590;2023-04-25T08:05:29;47.47;42.50;64.15;;
70245;Laerm;57637;49.272;8.590;2023-04-25T08:07:54;51.09;44.44;70.34;;
70245;Laerm;57637;49.272;8.590;2023-04-25T08:10:22;55.70;43.84;74.32;;
70245;Laerm;57637;49.272;8.590;2023-04-25T08:12:48;50.15;44.53;69.24;;
70245;Laerm;57637;49.272;8.590;2023-04-25T08:15:13;50.62;44.34;64.81;;
70245;Laerm;57637;49.272;8.590;2023-04-25T08:17:39;51.71;43.42;66.99;;
70245;Laerm;57637;49.272;8.590;2023-04-25T08:20:05;48.68;42.91;61.32;;
70245;Laerm;57637;49.272;8.590;2023-04-25T08:22:31;49.84;43.75;63.65;;
70245;Laerm;57637;49.272;8.590;2023-04-25T08:24:56;47.19;42.98;57.97;;
70245;Laerm;57637;49.272;8.590;2023-04-25T08:27:22;47.15;42.78;59.86;;
70245;Laerm;57637;49.272;8.590;2023-04-25T08:29:47;46.40;41.97;57.26;;
70245;Laerm;57637;49.272;8.590;2023-04-25T08:32:13;51.58;41.89;71.57;;
70245;Laerm;57637;49.272;8.590;2023-04-25T08:34:38;52.69;42.45;73.00;;
70245;Laerm;57637;49.272;8.590;2023-04-25T08:37:07;54.32;41.58;75.77;;
70245;Laerm;57637;49.272;8.590;2023-04-25T08:39:33;46.09;40.80;63.36;;
70245;Laerm;57637;49.272;8.590;2023-04-25T08:41:59;44.98;40.89;57.20;;
70245;Laerm;57637;49.272;8.590;2023-04-25T08:44:26;46.55;41.09;60.40;;
70245;Laerm;57637;49.272;8.590;2023-04-25T08:46:52;46.67;41.29;58.99;;
70245;Laerm;57637;49.272;8.590;2023-04-25T08:49:17;47.19;41.22;61.82;;
70245;Laerm;57637;49.272;8.590;2023-04-25T08:51:46;47.10;41.18;59.58;;
70245;Laerm;57637;49.272;8.590;2023-04-25T08:54:13;47.55;40.31;60.23;;
70245;Laerm;57637;49.272;8.590;2023-04-25T08:56:40;47.77;40.68;67.10;;
70245;Laerm;57637;49.272;8.590;2023-04-25T08:59:06;49.49;40.70;70.74;;
70245;Laerm;57637;49.272;8.590;2023-04-25T09:01:34;47.86;40.80;62.76;;
70245;Laerm;57637;49.272;8.590;2023-04-25T09:04:00;45.02;40.59;54.77;;
70245;Laerm;57637;49.272;8.590;2023-04-25T09:06:27;47.12;40.92;58.98;;
70245;Laerm;57637;49.272;8.590;2023-04-25T09:08:52;48.83;40.21;66.03;;
70245;Laerm;57637;49.272;8.590;2023-04-25T09:11:19;47.97;41.36;65.93;;
70245;Laerm;57637;49.272;8.590;2023-04-25T09:13:45;49.76;41.52;64.64;;
70245;Laerm;57637;49.272;8.590;2023-04-25T09:16:11;46.33;39.66;62.05;;
70245;Laerm;57637;49.272;8.590;2023-04-25T09:18:37;47.30;40.99;60.53;;
70245;Laerm;57637;49.272;8.590;2023-04-25T09:21:10;47.44;40.72;65.98;;
70245;Laerm;57637;49.272;8.590;2023-04-25T09:23:44;47.00;41.60;59.37;;
70245;Laerm;57637;49.272;8.590;2023-04-25T09:26:10;49.96;38.70;68.43;;
70245;Laerm;57637;49.272;8.590;2023-04-25T09:28:39;48.25;39.94;72.73;;
70245;Laerm;57637;49.272;8.590;2023-04-25T09:31:04;44.85;38.11;64.76;;
70245;Laerm;57637;49.272;8.590;2023-04-25T09:33:33;46.15;38.85;64.34;;
70245;Laerm;57637;49.272;8.590;2023-04-25T09:36:07;47.48;40.32;68.47;;
70245;Laerm;57637;49.272;8.590;2023-04-25T09:38:41;44.19;39.17;56.47;;
70245;Laerm;57637;49.272;8.590;2023-04-25T09:41:07;54.41;39.33;72.31;;
70245;Laerm;57637;49.272;8.590;2023-04-25T09:43:33;52.15;36.80;72.37;;
70245;Laerm;57637;49.272;8.590;2023-04-25T09:45:59;55.45;38.17;74.47;;
70245;Laerm;57637;49.272;8.590;2023-04-25T09:48:26;47.20;41.15;71.28;;
70245;Laerm;57637;49.272;8.590;2023-04-25T09:51:11;47.94;38.21;69.90;;
70245;Laerm;57637;49.272;8.590;2023-04-25T09:53:40;44.94;38.60;56.60;;
70245;Laerm;57637;49.272;8.590;2023-04-25T09:56:08;44.46;38.54;60.69;;
70245;Laerm;57637;49.272;8.590;2023-04-25T09:58:37;48.15;38.40;66.26;;
70245;Laerm;57637;49.272;8.590;2023-04-25T10:01:06;46.14;38.54;63.80;;
70245;Laerm;57637;49.272;8.590;2023-04-25T10:03:34;43.18;36.54;58.08;;
70245;Laerm;57637;49.272;8.590;2023-04-25T10:06:01;41.73;36.57;53.69;;
70245;Laerm;57637;49.272;8.590;2023-04-25T10:08:36;43.78;37.24;55.63;;
70245;Laerm;57637;49.272;8.590;2023-04-25T10:11:03;47.39;39.40;61.60;;
70245;Laerm;57637;49.272;8.590;2023-04-25T10:13:30;50.26;38.14;71.92;;
70245;Laerm;57637;49.272;8.590;2023-04-25T10:16:00;45.20;37.94;63.52;;
70245;Laerm;57637;49.272;8.590;2023-04-25T10:18:27;44.55;38.56;58.51;;
70245;Laerm;57637;49.272;8.590;2023-04-25T10:20:59;45.91;37.72;64.64;;
70245;Laerm;57637;49.272;8.590;2023-04-25T10:23:24;45.30;37.05;60.01;;
70245;Laerm;57637;49.272;8.590;2023-04-25T10:25:51;47.77;37.63;68.27;;
70245;Laerm;57637;49.272;8.590;2023-04-25T10:28:18;58.22;37.60;75.58;;
70245;Laerm;57637;49.272;8.590;2023-04-25T10:31:03;51.45;37.52;70.37;;
70245;Laerm;57637;49.272;8.590;2023-04-25T10:33:39;43.37;38.05;53.18;;
70245;Laerm;57637;49.272;8.590;2023-04-25T10:36:24;42.75;38.18;55.54;;
70245;Laerm;57637;49.272;8.590;2023-04-25T10:38:52;43.48;38.01;55.84;;
70245;Laerm;57637;49.272;8.590;2023-04-25T10:41:21;41.57;37.37;52.68;;
70245;Laerm;57637;49.272;8.590;2023-04-25T10:43:49;43.38;37.69;56.82;;
70245;Laerm;57637;49.272;8.590;2023-04-25T10:46:22;45.55;37.58;62.08;;
70245;Laerm;57637;49.272;8.590;2023-04-25T10:49:01;44.12;39.01;59.02;;
70245;Laerm;57637;49.272;8.590;2023-04-25T10:51:34;44.81;38.18;59.72;;
70245;Laerm;57637;49.272;8.590;2023-04-25T10:54:06;43.82;37.79;58.06;;
70245;Laerm;57637;49.272;8.590;2023-04-25T10:56:39;45.67;36.02;70.61;;
70245;Laerm;57637;49.272;8.590;2023-04-25T11:01:46;45.21;36.92;61.50;;
70245;Laerm;57637;49.272;8.590;2023-04-25T11:04:44;44.16;37.61;61.94;;
70245;Laerm;57637;49.272;8.590;2023-04-25T11:07:33;43.34;36.33;58.59;;
70245;Laerm;57637;49.272;8.590;2023-04-25T11:10:02;42.83;36.58;60.79;;
70245;Laerm;57637;49.272;8.590;2023-04-25T11:12:30;43.05;36.85;57.42;;
70245;Laerm;57637;49.272;8.590;2023-04-25T11:15:04;47.19;35.99;67.18;;
70245;Laerm;57637;49.272;8.590;2023-04-25T11:17:31;40.33;35.37;54.67;;
70245;Laerm;57637;49.272;8.590;2023-04-25T11:19:56;41.21;36.02;62.16;;
70245;Laerm;57637;49.272;8.590;2023-04-25T11:22:22;41.58;37.03;50.26;;
70245;Laerm;57637;49.272;8.590;2023-04-25T11:24:48;42.12;37.04;57.56;;
70245;Laerm;57637;49.272;8.590;2023-04-25T11:27:13;40.99;36.24;53.81;;
70245;Laerm;57637;49.272;8.590;2023-04-25T11:29:40;41.43;35.58;62.72;;
70245;Laerm;57637;49.272;8.590;2023-04-25T11:32:06;42.71;37.71;57.06;;
70245;Laerm;57637;49.272;8.590;2023-04-25T11:34:32;46.32;39.63;67.57;;
70245;Laerm;57637;49.272;8.590;2023-04-25T11:36:59;42.97;38.26;58.55;;
70245;Laerm;57637;49.272;8.590;2023-04-25T11:39:26;45.07;38.82;57.22;;
70245;Laerm;57637;49.272;8.590;2023-04-25T11:41:52;45.75;38.93;57.99;;
70245;Laerm;57637;49.272;8.590;2023-04-25T11:44:19;44.35;39.14;54.97;;
70245;Laerm;57637;49.272;8.590;2023-04-25T11:46:45;43.71;39.50;56.34;;
70245;Laerm;57637;49.272;8.590;2023-04-25T11:49:11;41.36;37.53;47.62;;
70245;Laerm;57637;49.272;8.590;2023-04-25T11:51:44;51.64;36.54;76.52;;
70245;Laerm;57637;49.272;8.590;2023-04-25T11:54:10;41.94;35.54;63.17;;
70245;Laerm;57637;49.272;8.590;2023-04-25T11:56:36;47.73;34.93;68.66;;
70245;Laerm;57637;49.272;8.590;2023-04-25T11:59:04;47.03;36.51;61.44;;
70245;Laerm;57637;49.272;8.590;2023-04-25T12:01:31;51.90;37.08;75.45;;
70245;Laerm;57637;49.272;8.590;2023-04-25T12:03:58;43.75;36.22;58.69;;
70245;Laerm;57637;49.272;8.590;2023-04-25T12:06:27;44.77;36.78;63.10;;
70245;Laerm;57637;49.272;8.590;2023-04-25T12:09:03;45.62;38.30;61.70;;
70245;Laerm;57637;49.272;8.590;2023-04-25T12:11:30;46.37;37.71;59.19;;
70245;Laerm;57637;49.272;8.590;2023-04-25T12:14:04;45.31;37.56;59.74;;
70245;Laerm;57637;49.272;8.590;2023-04-25T12:16:45;47.24;38.28;65.05;;
70245;Laerm;57637;49.272;8.590;2023-04-25T12:19:15;48.08;38.09;64.75;;
70245;Laerm;57637;49.272;8.590;2023-04-25T12:21:41;43.98;37.37;56.52;;
70245;Laerm;57637;49.272;8.590;2023-04-25T12:24:15;45.24;37.55;56.89;;
70245;Laerm;57637;49.272;8.590;2023-04-25T12:29:23;47.48;40.20;61.32;;
70245;Laerm;57637;49.272;8.590;2023-04-25T12:31:51;48.79;38.82;67.17;;
70245;Laerm;57637;49.272;8.590;2023-04-25T12:34:21;46.94;37.24;65.72;;
70245;Laerm;57637;49.272;8.590;2023-04-25T12:36:47;42.69;36.63;59.07;;
70245;Laerm;57637;49.272;8.590;2023-04-25T12:39:23;43.90;36.73;58.88;;
70245;Laerm;57637;49.272;8.590;2023-04-25T12:41:50;49.43;38.00;67.46;;
70245;Laerm;57637;49.272;8.590;2023-04-25T12:44:15;56.83;37.95;72.40;;
70245;Laerm;57637;49.272;8.590;2023-04-25T12:46:41;53.61;37.12;73.03;;
70245;Laerm;57637;49.272;8.590;2023-04-25T12:49:07;49.36;37.53;66.15;;
70245;Laerm;57637;49.272;8.590;2023-04-25T12:51:34;54.66;37.45;70.53;;
70245;Laerm;57637;49.272;8.590;2023-04-25T12:54:00;47.24;38.49;61.18;;
70245;Laerm;57637;49.272;8.590;2023-04-25T12:56:27;44.35;37.89;65.29;;
70245;Laerm;57637;49.272;8.590;2023-04-25T12:58:52;42.49;37.03;62.79;;
70245;Laerm;57637;49.272;8.590;2023-04-25T13:01:18;43.42;36.77;56.78;;
70245;Laerm;57637;49.272;8.590;2023-04-25T13:03:44;45.51;36.88;66.22;;
70245;Laerm;57637;49.272;8.590;2023-04-25T13:06:09;43.91;38.17;58.01;;
70245;Laerm;57637;49.272;8.590;2023-04-25T13:08:35;45.76;37.08;73.61;;
70245;Laerm;57637;49.272;8.590;2023-04-25T13:11:02;43.99;37.94;58.24;;
70245;Laerm;57637;49.272;8.590;2023-04-25T13:13:29;41.59;36.33;52.68;;
70245;Laerm;57637;49.272;8.590;2023-04-25T13:15:56;41.62;36.07;52.02;;
70245;Laerm;57637;49.272;8.590;2023-04-25T13:18:22;42.45;36.91;59.33;;
70245;Laerm;57637;49.272;8.590;2023-04-25T13:20:54;43.93;37.01;58.66;;
70245;Laerm;57637;49.272;8.590;2023-04-25T13:23:20;43.54;37.03;57.72;;
70245;Laerm;57637;49.272;8.590;2023-04-25T13:25:46;44.00;37.64;58.70;;
70245;Laerm;57637;49.272;8.590;2023-04-25T13:28:12;45.07;36.00;62.68;;
70245;Laerm;57637;49.272;8.590;2023-04-25T13:30:37;43.83;37.37;59.14;;
70245;Laerm;57637;49.272;8.590;2023-04-25T13:33:03;44.14;38.12;59.66;;
70245;Laerm;57637;49.272;8.590;2023-04-25T13:35:30;43.88;38.52;59.65;;
70245;Laerm;57637;49.272;8.590;2023-04-25T13:37:56;42.17;37.32;54.68;;
70245;Laerm;57637;49.272;8.590;2023-04-25T13:40:21;42.25;36.62;59.66;;
70245;Laerm;57637;49.272;8.590;2023-04-25T13:42:47;44.93;37.19;62.57;;
70245;Laerm;57637;49.272;8.590;2023-04-25T13:45:12;46.17;38.73;62.14;;
70245;Laerm;57637;49.272;8.590;2023-04-25T13:47:38;45.83;37.89;64.72;;